Time;durP1;ratioP1;P1;durP2;ratioP2;P2;SDS_P1;SDS_P2;PMS_P1;PMS_P2;Temp;Humidity;BMP_temperature;BMP_pressure;BME280_temperature;BME280_humidity;BME280_pressure;Samples;Min_cycle;Max_cycle;Signal;HPM_P1;HPM_P2
2022/05/21 00:00:31;;;;;;;;;;;;;;;16.72;40.47;101153.00;5061993;28;908;-64
2022/05/21 00:02:57;;;;;;;;;;;;;;;16.91;40.99;101167.16;5056961;28;920;-64
2022/05/21 00:05:23;;;;;;;;;;;;;;;17.08;42.40;101166.97;5056768;28;833;-63
2022/05/21 00:07:48;;;;;;;;;;;;;;;17.16;42.94;101157.38;5056656;28;802;-64
2022/05/21 00:10:15;;;;;;;;;;;;;;;17.24;43.58;101169.78;5058096;28;758;-64
2022/05/21 00:12:41;;;;;;;;;;;;;;;17.29;44.05;101153.28;5056958;28;781;-64
2022/05/21 00:15:06;;;;;;;;;;;;;;;17.35;44.28;101152.22;5058242;28;1049;-64
2022/05/21 00:17:32;;;;;;;;;;;;;;;17.43;44.56;101157.22;5057503;28;1993;-63
2022/05/21 00:19:58;;;;;;;;;;;;;;;17.43;44.84;101157.22;5056807;28;813;-63
2022/05/21 00:22:23;;;;;;;;;;;;;;;17.48;44.86;101141.81;5061391;28;786;-64
2022/05/21 00:24:49;;;;;;;;;;;;;;;17.52;44.94;101134.69;5059048;28;759;-63
2022/05/21 00:27:14;;;;;;;;;;;;;;;17.56;45.09;101133.06;5056387;28;885;-63
2022/05/21 00:29:40;;;;;;;;;;;;;;;17.52;45.47;101120.94;5056712;28;789;-64
2022/05/21 00:32:05;;;;;;;;;;;;;;;17.61;45.25;101122.03;5057230;28;831;-63
2022/05/21 00:34:31;;;;;;;;;;;;;;;17.66;45.54;101116.56;5059364;28;785;-63
2022/05/21 00:36:57;;;;;;;;;;;;;;;17.64;45.62;101107.75;5076079;28;1984;-63
2022/05/21 00:39:22;;;;;;;;;;;;;;;17.66;45.28;101113.00;5066519;28;803;-63
2022/05/21 00:41:48;;;;;;;;;;;;;;;17.68;45.07;101119.84;5056914;28;769;-64
2022/05/21 00:44:13;;;;;;;;;;;;;;;17.68;45.03;101117.09;5056680;28;1190;-63
2022/05/21 00:46:40;;;;;;;;;;;;;;;17.67;45.09;101118.22;5062564;28;812;-64
2022/05/21 00:49:05;;;;;;;;;;;;;;;17.72;45.03;101117.38;5060913;28;950;-63
2022/05/21 00:51:32;;;;;;;;;;;;;;;17.71;45.17;101108.31;5056660;28;802;-63
2022/05/21 00:53:58;;;;;;;;;;;;;;;17.76;45.36;101104.75;5055991;28;775;-64
2022/05/21 00:56:24;;;;;;;;;;;;;;;17.75;45.51;101103.09;5038257;28;1914;-65
2022/05/21 01:01:34;;;;;;;;;;;;;;;17.79;45.44;101094.03;5047005;28;848;-65
2022/05/21 01:03:59;;;;;;;;;;;;;;;17.79;45.45;101083.03;5038801;28;1428;-65
2022/05/21 01:06:25;;;;;;;;;;;;;;;17.88;45.30;101090.72;5060454;28;726;-63
2022/05/21 01:08:50;;;;;;;;;;;;;;;17.78;45.29;101084.13;5060480;28;932;-62
2022/05/21 01:11:16;;;;;;;;;;;;;;;17.82;45.59;101094.56;5060509;28;724;-62
2022/05/21 01:13:42;;;;;;;;;;;;;;;17.88;45.34;101088.81;5064088;28;984;-63
2022/05/21 01:16:09;;;;;;;;;;;;;;;17.88;45.47;101082.47;5066700;28;1906;-63
2022/05/21 01:18:34;;;;;;;;;;;;;;;17.87;45.56;101089.09;5060319;28;801;-63
2022/05/21 01:21:00;;;;;;;;;;;;;;;17.91;45.74;101085.53;5060063;28;849;-64
2022/05/21 01:23:25;;;;;;;;;;;;;;;17.90;45.85;101063.75;5059521;28;903;-63
2022/05/21 01:25:51;;;;;;;;;;;;;;;17.96;45.78;101065.44;5066349;28;814;-64
2022/05/21 01:28:18;;;;;;;;;;;;;;;17.93;45.77;101071.50;5042358;28;856;-65
2022/05/21 01:30:44;;;;;;;;;;;;;;;17.94;45.90;101062.97;5065625;28;859;-66
2022/05/21 01:33:11;;;;;;;;;;;;;;;17.96;45.64;101059.94;5041766;28;1110;-64
2022/05/21 01:35:36;;;;;;;;;;;;;;;17.98;45.89;101063.25;5072806;28;1909;-64
2022/05/21 01:38:02;;;;;;;;;;;;;;;18.00;45.80;101066.53;5075007;28;836;-65
2022/05/21 01:40:27;;;;;;;;;;;;;;;17.99;46.11;101067.63;5066270;28;789;-64
2022/05/21 01:45:37;;;;;;;;;;;;;;;18.06;46.17;101068.19;5063642;28;762;-65
2022/05/21 01:48:05;;;;;;;;;;;;;;;18.04;46.49;101055.81;5059969;28;802;-66
2022/05/21 01:50:30;;;;;;;;;;;;;;;18.15;46.39;101056.63;5060029;28;826;-66
2022/05/21 01:52:56;;;;;;;;;;;;;;;18.11;46.07;101057.16;5065328;28;818;-65
2022/05/21 01:55:21;;;;;;;;;;;;;;;18.08;45.76;101043.97;5059579;28;1914;-63
2022/05/21 01:57:47;;;;;;;;;;;;;;;18.07;45.79;101044.25;5059243;28;726;-64
2022/05/21 02:00:13;;;;;;;;;;;;;;;18.06;45.69;101043.44;5060878;28;895;-64
2022/05/21 02:02:38;;;;;;;;;;;;;;;18.03;45.40;101035.72;5040780;28;909;-64
2022/05/21 02:05:04;;;;;;;;;;;;;;;17.96;45.52;101037.91;5057046;28;806;-65
2022/05/21 02:07:30;;;;;;;;;;;;;;;17.98;45.39;101048.66;5078120;28;949;-65
2022/05/21 02:09:55;;;;;;;;;;;;;;;18.00;45.10;101044.53;5078106;28;812;-65
2022/05/21 02:12:21;;;;;;;;;;;;;;;17.95;45.20;101042.59;5078683;28;791;-66
2022/05/21 02:14:47;;;;;;;;;;;;;;;17.94;45.10;101034.63;5077909;28;1202;-65
2022/05/21 02:17:12;;;;;;;;;;;;;;;17.88;45.13;101032.94;5070989;28;1910;-65
2022/05/21 02:19:38;;;;;;;;;;;;;;;17.92;44.70;101034.91;5059018;28;808;-65
2022/05/21 02:22:03;;;;;;;;;;;;;;;17.84;44.69;101038.19;5058964;28;919;-65
2022/05/21 02:24:29;;;;;;;;;;;;;;;17.81;44.61;101024.16;5058605;28;1471;-65
2022/05/21 02:26:54;;;;;;;;;;;;;;;17.82;44.26;101031.31;5059259;28;912;-65
2022/05/21 02:29:21;;;;;;;;;;;;;;;17.79;44.38;101033.53;5061360;28;1038;-65
2022/05/21 02:31:47;;;;;;;;;;;;;;;17.89;43.96;101032.69;5066560;28;812;-65
2022/05/21 02:34:12;;;;;;;;;;;;;;;17.85;44.46;101034.34;5059335;28;769;-65
2022/05/21 02:39:29;;;;;;;;;;;;;;;17.79;44.30;101025.28;5058443;28;842;-65
2022/05/21 02:41:55;;;;;;;;;;;;;;;17.69;44.21;101019.75;5063566;28;1528;-64
2022/05/21 02:44:20;;;;;;;;;;;;;;;17.71;43.99;101028.56;5059076;28;1061;-63
2022/05/21 02:46:46;;;;;;;;;;;;;;;17.67;44.20;101030.22;5061468;28;891;-64
2022/05/21 02:49:12;;;;;;;;;;;;;;;17.61;44.19;101023.88;5058423;28;853;-63
2022/05/21 02:51:37;;;;;;;;;;;;;;;17.62;44.10;101021.94;5058277;28;825;-64
2022/05/21 02:54:03;;;;;;;;;;;;;;;17.63;44.41;101029.13;5058376;28;870;-64
2022/05/21 02:56:28;;;;;;;;;;;;;;;17.68;44.21;101031.84;5060573;28;1901;-64
2022/05/21 02:58:54;;;;;;;;;;;;;;;17.65;44.22;101015.09;5040156;28;819;-65
2022/05/21 03:01:19;;;;;;;;;;;;;;;17.64;44.35;101019.75;5064380;28;922;-65
2022/05/21 03:03:45;;;;;;;;;;;;;;;17.71;44.25;101025.81;5077983;28;839;-64
2022/05/21 03:06:10;;;;;;;;;;;;;;;17.67;44.45;101029.38;5077371;28;762;-63
2022/05/21 03:11:20;;;;;;;;;;;;;;;17.79;43.73;101030.78;5059210;28;798;-63
2022/05/21 03:13:46;;;;;;;;;;;;;;;17.84;43.58;101027.19;5068742;28;1513;-63
2022/05/21 03:16:11;;;;;;;;;;;;;;;17.71;43.93;101024.97;5074403;28;1965;-64
2022/05/21 03:18:36;;;;;;;;;;;;;;;17.63;44.16;101029.13;5065298;28;1459;-65
2022/05/21 03:21:02;;;;;;;;;;;;;;;17.64;44.25;101029.94;5066273;28;1259;-63
2022/05/21 03:23:27;;;;;;;;;;;;;;;17.65;44.01;101028.84;5060415;28;809;-61
2022/05/21 03:25:53;;;;;;;;;;;;;;;17.60;44.11;101024.16;5073692;28;1238;-67
2022/05/21 03:28:18;;;;;;;;;;;;;;;17.62;43.82;101016.44;5068569;28;1187;-67
2022/05/21 03:30:44;;;;;;;;;;;;;;;17.64;43.95;101021.69;5059878;28;815;-65
2022/05/21 03:33:09;;;;;;;;;;;;;;;17.63;44.04;101026.38;5063461;28;962;-63
2022/05/21 03:35:35;;;;;;;;;;;;;;;17.60;43.99;101013.16;5061514;28;1882;-63
2022/05/21 03:38:01;;;;;;;;;;;;;;;17.62;44.25;101014.53;5039775;28;760;-65
2022/05/21 03:40:26;;;;;;;;;;;;;;;17.66;44.30;101023.06;5057350;28;866;-64
2022/05/21 03:42:52;;;;;;;;;;;;;;;17.60;44.46;101007.66;5058910;28;1089;-65
2022/05/21 03:45:17;;;;;;;;;;;;;;;17.71;44.73;101017.56;5062475;28;1178;-64
2022/05/21 03:47:43;;;;;;;;;;;;;;;17.61;44.54;101020.28;5062960;28;1095;-64
2022/05/21 03:50:09;;;;;;;;;;;;;;;17.73;44.41;101017.28;5063565;28;1049;-65
2022/05/21 03:52:35;;;;;;;;;;;;;;;17.68;44.44;101015.34;5062498;28;1041;-63
2022/05/21 03:55:01;;;;;;;;;;;;;;;17.66;44.37;101028.56;5057376;28;1272;-63
2022/05/21 03:57:26;;;;;;;;;;;;;;;17.63;44.24;101020.84;5066416;28;1906;-62
2022/05/21 03:59:52;;;;;;;;;;;;;;;17.61;44.54;101012.03;5067140;28;836;-63
2022/05/21 04:02:18;;;;;;;;;;;;;;;17.62;44.62;101016.44;5062672;28;804;-64
2022/05/21 04:04:43;;;;;;;;;;;;;;;17.66;44.49;101020.31;5076140;28;774;-64
2022/05/21 04:07:09;;;;;;;;;;;;;;;17.64;44.33;101014.25;5076485;28;928;-65
2022/05/21 04:09:34;;;;;;;;;;;;;;;17.62;44.44;101019.19;5075362;28;934;-65
2022/05/21 04:11:59;;;;;;;;;;;;;;;17.66;44.41;101017.56;5064814;28;1013;-64
2022/05/21 04:14:27;;;;;;;;;;;;;;;17.76;44.22;101022.22;5074424;28;1229;-63
2022/05/21 04:16:59;;;;;;;;;;;;;;;17.72;44.17;101013.69;5063503;28;1964;-63
2022/05/21 04:19:25;;;;;;;;;;;;;;;17.72;44.41;101021.13;5056757;28;834;-63
2022/05/21 04:21:51;;;;;;;;;;;;;;;17.61;44.24;101014.78;5056422;28;830;-63
2022/05/21 04:24:16;;;;;;;;;;;;;;;17.57;44.47;101019.19;5061769;28;819;-64
2022/05/21 04:26:42;;;;;;;;;;;;;;;17.63;44.29;101031.88;5058249;28;810;-63
2022/05/21 04:29:08;;;;;;;;;;;;;;;17.60;44.24;101013.97;5056737;28;790;-64
2022/05/21 04:31:34;;;;;;;;;;;;;;;17.65;44.58;101026.09;5039912;28;1031;-64
2022/05/21 04:33:59;;;;;;;;;;;;;;;17.69;44.35;101033.50;5056432;28;896;-67
2022/05/21 04:36:25;;;;;;;;;;;;;;;17.75;44.70;101031.56;5057488;28;1971;-65
2022/05/21 04:38:51;;;;;;;;;;;;;;;17.76;44.38;101022.22;5067670;28;1171;-65
2022/05/21 04:41:17;;;;;;;;;;;;;;;17.86;44.52;101033.22;5069161;28;1218;-66
2022/05/21 04:43:42;;;;;;;;;;;;;;;17.90;44.57;101022.50;5067653;28;1210;-65
2022/05/21 04:46:08;;;;;;;;;;;;;;;17.87;44.88;101018.38;5062652;28;1285;-65
2022/05/21 04:48:34;;;;;;;;;;;;;;;17.85;45.15;101015.09;5067674;28;1183;-66
2022/05/21 04:51:00;;;;;;;;;;;;;;;17.93;45.29;101019.22;5069433;28;1012;-65
2022/05/21 04:53:26;;;;;;;;;;;;;;;17.94;45.41;101015.38;5066651;28;1254;-66
2022/05/21 04:55:51;;;;;;;;;;;;;;;17.99;45.53;101009.84;5065731;28;1909;-65
2022/05/21 04:58:17;;;;;;;;;;;;;;;17.97;45.68;101017.56;5068148;28;1238;-65
2022/05/21 05:00:42;;;;;;;;;;;;;;;18.06;45.41;101023.31;5068929;28;1297;-66
2022/05/21 05:03:14;;;;;;;;;;;;;;;18.02;45.57;101016.72;5064446;28;1237;-65
2022/05/21 05:05:40;;;;;;;;;;;;;;;18.05;45.26;101010.69;5066699;28;1131;-66
2022/05/21 05:08:06;;;;;;;;;;;;;;;18.08;45.26;101007.38;5067137;28;1222;-66
2022/05/21 05:10:32;;;;;;;;;;;;;;;17.98;45.35;101007.38;5069026;28;1281;-66
2022/05/21 05:12:58;;;;;;;;;;;;;;;18.03;45.21;101005.44;5068423;28;1262;-66
2022/05/21 05:15:23;;;;;;;;;;;;;;;18.02;44.93;100998.31;5065247;28;1269;-65
2022/05/21 05:17:49;;;;;;;;;;;;;;;18.00;45.04;101008.75;5069058;28;1968;-64
2022/05/21 05:20:14;;;;;;;;;;;;;;;18.02;44.90;101001.06;5067445;28;1241;-66
2022/05/21 05:22:40;;;;;;;;;;;;;;;18.01;45.07;101006.84;5066959;28;1241;-65
2022/05/21 05:25:05;;;;;;;;;;;;;;;18.00;44.77;101017.00;5066887;28;1281;-65
2022/05/21 05:27:31;;;;;;;;;;;;;;;18.02;44.90;101016.72;5059625;28;1274;-65
2022/05/21 05:29:56;;;;;;;;;;;;;;;18.00;44.73;101019.75;5067522;28;1138;-64
2022/05/21 05:32:22;;;;;;;;;;;;;;;18.00;44.80;101021.69;5056205;28;1088;-65
2022/05/21 05:34:47;;;;;;;;;;;;;;;18.06;44.73;101029.69;5055957;28;777;-65
2022/05/21 05:37:13;;;;;;;;;;;;;;;18.08;44.78;101024.69;5065060;28;1953;-64
2022/05/21 05:39:38;;;;;;;;;;;;;;;17.99;44.64;101014.53;5067439;28;1245;-66
2022/05/21 05:42:04;;;;;;;;;;;;;;;18.00;44.69;101017.00;5064515;28;1099;-65
2022/05/21 05:44:31;;;;;;;;;;;;;;;18.01;44.70;101004.91;5068617;28;1293;-65
2022/05/21 05:46:57;;;;;;;;;;;;;;;18.05;44.81;101008.75;5065810;28;1296;-64
2022/05/21 05:49:23;;;;;;;;;;;;;;;18.01;44.91;101013.16;5066039;28;1147;-64
2022/05/21 05:51:49;;;;;;;;;;;;;;;18.03;44.70;101012.88;5068980;28;1210;-65
2022/05/21 05:54:14;;;;;;;;;;;;;;;18.11;45.24;101002.13;5070822;28;1237;-64
2022/05/21 05:56:44;;;;;;;;;;;;;;;18.17;46.03;101000.19;5078526;28;1970;-67
2022/05/21 06:02:57;;;;;;;;;;;;;;;17.93;44.45;101000.78;5064930;28;996;-66
2022/05/21 06:04:39;;;;;;;;;;;;;;;17.71;43.57;101006.56;5058864;28;1401;-65
2022/05/21 06:07:05;;;;;;;;;;;;;;;17.61;42.95;101010.13;5062676;28;846;-65
2022/05/21 06:09:32;;;;;;;;;;;;;;;17.77;44.11;101005.44;5059236;28;818;-63
2022/05/21 06:11:58;;;;;;;;;;;;;;;18.26;47.46;101003.22;5059142;28;829;-63
2022/05/21 06:14:23;;;;;;;;;;;;;;;18.84;49.55;100996.38;5072007;28;1254;-64
2022/05/21 06:16:48;;;;;;;;;;;;;;;19.21;51.29;100995.91;5075860;28;1985;-64
2022/05/21 06:19:14;;;;;;;;;;;;;;;19.55;52.02;100983.25;5070654;28;934;-64
2022/05/21 06:21:39;;;;;;;;;;;;;;;19.86;53.01;100986.56;5058950;28;879;-63
2022/05/21 06:24:05;;;;;;;;;;;;;;;20.08;53.62;100985.25;5040556;28;832;-64
2022/05/21 06:26:30;;;;;;;;;;;;;;;19.93;54.85;100983.47;5058792;28;786;-65
2022/05/21 06:28:57;;;;;;;;;;;;;;;19.79;54.40;100984.16;5058778;28;950;-66
2022/05/21 06:31:22;;;;;;;;;;;;;;;19.06;53.68;100983.03;5064391;28;853;-65
2022/05/21 06:33:48;;;;;;;;;;;;;;;19.01;50.83;100974.78;5058524;28;910;-66
2022/05/21 06:36:16;;;;;;;;;;;;;;;18.85;48.03;100973.22;5058537;28;1913;-68
2022/05/21 06:38:43;;;;;;;;;;;;;;;18.62;45.99;100986.53;5058320;28;842;-66
2022/05/21 06:41:09;;;;;;;;;;;;;;;18.30;44.97;100980.34;5058867;28;767;-67
2022/05/21 06:43:34;;;;;;;;;;;;;;;18.23;43.40;100978.97;5058134;28;831;-69
2022/05/21 06:46:00;;;;;;;;;;;;;;;18.09;42.61;100965.81;5062246;28;820;-66
2022/05/21 06:48:25;;;;;;;;;;;;;;;17.89;42.31;100971.31;5058760;28;879;-64
2022/05/21 06:50:51;;;;;;;;;;;;;;;17.97;42.59;100973.53;5058427;28;801;-64
2022/05/21 06:53:16;;;;;;;;;;;;;;;18.18;44.11;100957.81;5058488;28;838;-66
2022/05/21 06:55:42;;;;;;;;;;;;;;;18.53;46.47;100966.22;5057741;28;1914;-63
2022/05/21 06:58:07;;;;;;;;;;;;;;;19.00;49.02;100967.66;5064693;28;1006;-65
2022/05/21 07:00:33;;;;;;;;;;;;;;;19.33;51.21;100956.94;5060373;28;897;-68
2022/05/21 07:02:58;;;;;;;;;;;;;;;19.62;53.40;100958.91;5057778;28;901;-66
2022/05/21 07:08:19;;;;;;;;;;;;;;;19.69;54.82;100944.78;5077461;28;787;-66
2022/05/21 07:10:44;;;;;;;;;;;;;;;19.27;53.15;100938.78;5063858;28;836;-67
2022/05/21 07:13:10;;;;;;;;;;;;;;;18.79;51.21;100934.69;5058007;28;868;-66
2022/05/21 07:15:35;;;;;;;;;;;;;;;18.72;48.43;100928.66;5057610;28;1909;-64
2022/05/21 07:18:01;;;;;;;;;;;;;;;18.64;46.10;100932.00;5057695;28;865;-64
2022/05/21 07:20:26;;;;;;;;;;;;;;;18.49;44.55;100934.84;5057698;28;878;-65
2022/05/21 07:22:52;;;;;;;;;;;;;;;18.32;43.21;100924.19;5064415;28;888;-66
2022/05/21 07:25:18;;;;;;;;;;;;;;;18.23;42.47;100930.28;5057718;28;961;-66
2022/05/21 07:27:44;;;;;;;;;;;;;;;18.08;41.67;100925.63;5060692;28;940;-63
2022/05/21 07:30:10;;;;;;;;;;;;;;;18.01;41.01;100921.53;5074427;28;912;-63
2022/05/21 07:32:35;;;;;;;;;;;;;;;17.88;40.59;100917.41;5073854;28;797;-63
2022/05/21 07:35:02;;;;;;;;;;;;;;;17.90;41.40;100918.78;5067077;28;1199;-64
2022/05/21 07:37:27;;;;;;;;;;;;;;;18.02;41.92;100921.25;5060159;28;1905;-64
2022/05/21 07:39:53;;;;;;;;;;;;;;;18.12;43.02;100920.41;5055954;28;844;-62
2022/05/21 07:42:19;;;;;;;;;;;;;;;18.28;43.42;100907.41;5055946;28;735;-62
2022/05/21 07:44:44;;;;;;;;;;;;;;;18.30;43.93;100921.72;5056184;28;1215;-62
2022/05/21 07:47:09;;;;;;;;;;;;;;;18.46;44.86;100911.44;5067101;28;825;-63
2022/05/21 07:49:35;;;;;;;;;;;;;;;18.65;46.12;100911.63;5062409;28;822;-62
2022/05/21 07:52:00;;;;;;;;;;;;;;;18.78;47.33;100905.47;5057389;28;906;-63
2022/05/21 07:54:26;;;;;;;;;;;;;;;18.91;47.70;100914.25;5057316;28;844;-62
2022/05/21 07:56:52;;;;;;;;;;;;;;;19.07;47.96;100896.50;5056784;28;1973;-63
2022/05/21 07:59:17;;;;;;;;;;;;;;;19.14;48.33;100893.41;5056807;28;753;-63
2022/05/21 08:01:43;;;;;;;;;;;;;;;19.17;48.87;100879.06;5063783;28;1106;-65
2022/05/21 08:04:08;;;;;;;;;;;;;;;19.26;48.95;100876.50;5057174;28;817;-62
2022/05/21 08:06:34;;;;;;;;;;;;;;;19.34;48.89;100877.81;5056840;28;877;-61
2022/05/21 08:09:01;;;;;;;;;;;;;;;19.51;48.68;100882.88;5056958;28;793;-65
2022/05/21 08:11:27;;;;;;;;;;;;;;;19.43;49.08;100885.16;5038109;28;854;-61
2022/05/21 08:13:52;;;;;;;;;;;;;;;19.51;49.25;100878.19;5063645;28;1155;-63
2022/05/21 08:16:18;;;;;;;;;;;;;;;19.58;49.04;100878.66;5045831;28;1906;-63
2022/05/21 08:18:43;;;;;;;;;;;;;;;19.68;48.99;100886.00;5072682;28;1092;-61
2022/05/21 08:21:09;;;;;;;;;;;;;;;19.72;49.15;100876.03;5061922;28;1302;-62
2022/05/21 08:29:04;;;;;;;;;;;;;;;19.27;47.95;100872.63;5056679;28;882;-63
2022/05/21 08:31:30;;;;;;;;;;;;;;;19.23;46.77;100860.53;5060273;28;858;-63
2022/05/21 08:33:55;;;;;;;;;;;;;;;19.10;45.70;100854.56;5056574;28;897;-62
2022/05/21 08:36:20;;;;;;;;;;;;;;;19.01;45.33;100861.81;5038453;28;1961;-61
2022/05/21 08:38:46;;;;;;;;;;;;;;;18.98;44.70;100865.16;5065999;28;1008;-60
2022/05/21 08:41:12;;;;;;;;;;;;;;;18.98;44.31;100859.63;5070521;28;1317;-60
2022/05/21 08:43:50;;;;;;;;;;;;;;;18.91;43.98;100859.13;5070232;28;1232;-61
2022/05/21 08:46:23;;;;;;;;;;;;;;;18.85;44.00;100855.56;5069615;28;1032;-60
2022/05/21 08:48:55;;;;;;;;;;;;;;;18.91;43.62;100851.69;5052330;28;1199;-59
2022/05/21 08:51:21;;;;;;;;;;;;;;;18.87;43.34;100853.38;5043706;28;1185;-62
2022/05/21 08:53:49;;;;;;;;;;;;;;;18.83;43.61;100848.69;5050876;28;1281;-62
2022/05/21 08:56:14;;;;;;;;;;;;;;;18.81;43.44;100844.28;5075359;28;1969;-65
2022/05/21 08:58:43;;;;;;;;;;;;;;;18.84;43.35;100836.56;5075952;28;813;-63
2022/05/21 09:01:11;;;;;;;;;;;;;;;18.86;43.32;100839.84;5068678;28;873;-62
2022/05/21 09:03:37;;;;;;;;;;;;;;;18.86;43.34;100828.84;5071763;28;738;-65
2022/05/21 09:06:08;;;;;;;;;;;;;;;18.84;43.14;100831.06;5056571;28;746;-60
2022/05/21 09:08:37;;;;;;;;;;;;;;;18.82;42.96;100823.09;5055884;28;916;-62
2022/05/21 09:11:04;;;;;;;;;;;;;;;18.80;43.28;100820.63;5056277;28;965;-62
2022/05/21 09:13:34;;;;;;;;;;;;;;;18.74;43.44;100827.25;5053822;28;928;-62
2022/05/21 09:18:44;;;;;;;;;;;;;;;18.88;43.45;100821.97;5063188;28;763;-63
2022/05/21 09:21:20;;;;;;;;;;;;;;;18.94;43.36;100819.97;5056716;28;813;-63
2022/05/21 09:23:46;;;;;;;;;;;;;;;18.96;43.17;100815.84;5069468;28;790;-66
2022/05/21 09:26:12;;;;;;;;;;;;;;;18.92;43.50;100811.19;5071690;28;1071;-64
2022/05/21 09:28:40;;;;;;;;;;;;;;;18.88;43.26;100812.88;5048847;28;1230;-64
2022/05/21 09:31:06;;;;;;;;;;;;;;;18.84;43.17;100812.59;5071590;28;1278;-63
2022/05/21 09:33:41;;;;;;;;;;;;;;;18.86;43.14;100813.16;5041694;28;999;-64
2022/05/21 09:36:07;;;;;;;;;;;;;;;18.86;43.21;100801.28;5069568;28;1902;-64
2022/05/21 09:38:33;;;;;;;;;;;;;;;18.83;43.14;100797.19;5075670;28;1123;-61
2022/05/21 09:41:08;;;;;;;;;;;;;;;18.81;43.01;100793.88;5078732;28;814;-63
2022/05/21 09:46:22;;;;;;;;;;;;;;;18.86;43.27;100790.25;5045097;28;753;-63
2022/05/21 09:48:48;;;;;;;;;;;;;;;18.77;43.33;100788.13;5069448;28;812;-62
2022/05/21 09:51:20;;;;;;;;;;;;;;;18.86;43.38;100784.75;5079164;28;1390;-62
2022/05/21 09:53:46;;;;;;;;;;;;;;;18.84;43.30;100784.22;5073936;28;966;-65
2022/05/21 09:56:31;;;;;;;;;;;;;;;18.94;42.84;100782.25;5060545;28;1909;-63
2022/05/21 09:59:10;;;;;;;;;;;;;;;18.89;43.09;100774.03;5041610;28;838;-62
2022/05/21 10:01:40;;;;;;;;;;;;;;;18.90;43.32;100769.31;5067612;28;847;-63
2022/05/21 10:04:13;;;;;;;;;;;;;;;18.98;42.93;100782.47;5078488;28;818;-65
2022/05/21 10:06:40;;;;;;;;;;;;;;;18.91;43.16;100760.75;5058883;28;1011;-65
2022/05/21 10:11:55;;;;;;;;;;;;;;;18.93;43.43;100766.00;5043848;28;853;-63
2022/05/21 10:14:22;;;;;;;;;;;;;;;18.92;43.39;100758.84;5059205;28;1215;-64
2022/05/21 10:16:48;;;;;;;;;;;;;;;18.96;43.55;100757.16;5064590;28;1981;-65
2022/05/21 10:19:16;;;;;;;;;;;;;;;18.98;43.66;100768.69;5076188;28;846;-62
2022/05/21 10:22:00;;;;;;;;;;;;;;;19.00;43.44;100760.13;5068165;28;1092;-62
2022/05/21 10:24:35;;;;;;;;;;;;;;;19.04;43.56;100758.44;5069048;28;1211;-62
2022/05/21 10:27:00;;;;;;;;;;;;;;;19.02;43.52;100761.50;5064774;28;1215;-61
2022/05/21 10:29:44;;;;;;;;;;;;;;;18.98;43.55;100754.91;5074463;28;1245;-65
2022/05/21 10:32:28;;;;;;;;;;;;;;;19.01;43.35;100770.06;5066754;28;1004;-63
2022/05/21 10:35:13;;;;;;;;;;;;;;;19.03;43.32;100762.31;5067232;28;1139;-62
2022/05/21 10:37:38;;;;;;;;;;;;;;;18.97;43.35;100756.03;5055321;28;1973;-62
2022/05/21 10:40:16;;;;;;;;;;;;;;;18.99;43.31;100751.06;5066545;28;1206;-62
2022/05/21 10:42:48;;;;;;;;;;;;;;;18.94;43.37;100742.84;5069196;28;1262;-62
2022/05/21 10:45:16;;;;;;;;;;;;;;;18.89;43.43;100742.91;5065369;28;1242;-60
2022/05/21 10:47:44;;;;;;;;;;;;;;;18.96;43.22;100735.09;5068240;28;1187;-62
2022/05/21 10:50:22;;;;;;;;;;;;;;;18.99;43.44;100734.53;5070025;28;1202;-64
2022/05/21 10:53:00;;;;;;;;;;;;;;;18.89;43.32;100729.13;5054679;28;1262;-67
2022/05/21 10:55:36;;;;;;;;;;;;;;;18.93;43.11;100742.03;5073800;28;846;-65
2022/05/21 10:58:07;;;;;;;;;;;;;;;18.90;43.44;100719.72;5048474;28;1970;-61
2022/05/21 11:00:33;;;;;;;;;;;;;;;18.96;43.35;100735.91;5063969;28;906;-65
2022/05/21 11:03:17;;;;;;;;;;;;;;;18.98;43.35;100727.38;5064048;28;917;-62
2022/05/21 11:05:55;;;;;;;;;;;;;;;18.91;43.46;100724.13;5058048;28;956;-63
2022/05/21 11:08:35;;;;;;;;;;;;;;;18.91;43.32;100729.63;5057351;28;804;-62
2022/05/21 11:11:01;;;;;;;;;;;;;;;18.92;43.22;100731.28;5057583;28;827;-65
2022/05/21 11:13:29;;;;;;;;;;;;;;;18.90;43.45;100728.81;5058200;28;734;-64
2022/05/21 11:15:56;;;;;;;;;;;;;;;18.86;43.19;100735.16;5059620;28;1909;-65
2022/05/21 11:18:27;;;;;;;;;;;;;;;18.98;42.91;100721.84;5062720;28;1060;-62
2022/05/21 11:21:11;;;;;;;;;;;;;;;18.93;42.92;100719.16;5070020;28;1127;-62
2022/05/21 11:23:55;;;;;;;;;;;;;;;18.92;43.05;100717.50;5068744;28;1242;-65
2022/05/21 11:26:24;;;;;;;;;;;;;;;18.98;43.00;100705.31;5066874;28;1405;-65
2022/05/21 11:28:57;;;;;;;;;;;;;;;18.93;43.14;100708.16;5073202;28;1055;-62
2022/05/21 11:39:43;;;;;;;;;;;;;;;18.95;43.00;100698.44;5061931;28;1017;-62
2022/05/21 11:42:12;;;;;;;;;;;;;;;18.94;42.93;100693.22;5076432;28;813;-62
2022/05/21 11:44:58;;;;;;;;;;;;;;;18.81;43.28;100679.00;5076417;28;802;-63
2022/05/21 11:47:29;;;;;;;;;;;;;;;18.92;43.37;100684.44;5062246;28;818;-62
2022/05/21 11:49:57;;;;;;;;;;;;;;;18.95;43.42;100684.66;5062109;28;968;-61
2022/05/21 11:52:25;;;;;;;;;;;;;;;18.94;43.46;100674.78;5068088;28;1269;-62
2022/05/21 11:54:58;;;;;;;;;;;;;;;18.93;43.57;100664.06;5068265;28;1262;-62
2022/05/21 11:57:29;;;;;;;;;;;;;;;18.95;43.60;100664.56;5070368;28;1974;-62
2022/05/21 11:59:55;;;;;;;;;;;;;;;18.93;43.50;100656.59;5069072;28;1297;-64
2022/05/21 12:02:22;;;;;;;;;;;;;;;18.95;43.61;100650.81;5064972;28;976;-61
2022/05/21 12:04:48;;;;;;;;;;;;;;;18.95;43.58;100650.81;5068893;28;1250;-62
2022/05/21 12:07:34;;;;;;;;;;;;;;;18.98;43.67;100658.47;5072654;28;1253;-63
2022/05/21 12:10:03;;;;;;;;;;;;;;;18.98;43.74;100658.47;5075361;28;1756;-60
2022/05/21 12:12:30;;;;;;;;;;;;;;;19.00;43.67;100648.00;5076014;28;820;-61
2022/05/21 12:14:57;;;;;;;;;;;;;;;19.00;43.66;100639.72;5072217;28;992;-62
2022/05/21 12:17:43;;;;;;;;;;;;;;;19.05;43.39;100639.66;5056961;28;1985;-61
2022/05/21 12:20:11;;;;;;;;;;;;;;;19.55;44.38;100641.25;5070878;28;1091;-60
2022/05/21 12:22:39;;;;;;;;;;;;;;;19.19;44.25;100627.94;5075702;28;834;-60
2022/05/21 12:25:07;;;;;;;;;;;;;;;19.05;44.43;100622.31;5075690;28;797;-61
2022/05/21 12:27:32;;;;;;;;;;;;;;;19.14;43.98;100629.63;5055403;28;846;-58
2022/05/21 12:29:58;;;;;;;;;;;;;;;19.16;44.29;100623.81;5056422;28;910;-59
2022/05/21 12:32:24;;;;;;;;;;;;;;;19.13;43.90;100613.38;5061786;28;830;-60
2022/05/21 12:35:00;;;;;;;;;;;;;;;19.21;43.74;100611.91;5056415;28;800;-62
2022/05/21 12:37:27;;;;;;;;;;;;;;;19.21;43.90;100614.66;5056357;28;1905;-61
2022/05/21 12:40:05;;;;;;;;;;;;;;;19.31;43.70;100617.28;5039930;28;769;-60
2022/05/21 12:42:39;;;;;;;;;;;;;;;21.13;39.94;100606.53;5060099;28;752;-61
2022/05/21 12:45:05;;;;;;;;;;;;;;;20.29;42.19;100599.28;5057093;28;844;-63
2022/05/21 12:47:30;;;;;;;;;;;;;;;19.86;44.04;100586.44;5058371;28;782;-62
2022/05/21 12:49:56;;;;;;;;;;;;;;;19.74;45.04;100592.41;5056046;28;845;-62
2022/05/21 12:52:28;;;;;;;;;;;;;;;19.80;45.40;100587.66;5038097;28;786;-60
2022/05/21 12:55:14;;;;;;;;;;;;;;;20.71;43.25;100586.38;5062746;28;815;-57
2022/05/21 12:57:40;;;;;;;;;;;;;;;20.45;44.40;100586.81;5075607;28;1913;-61
2022/05/21 13:00:06;;;;;;;;;;;;;;;20.00;45.76;100589.25;5073387;28;873;-58
2022/05/21 13:02:52;;;;;;;;;;;;;;;20.65;44.52;100587.56;5078990;28;921;-58
2022/05/21 13:05:38;;;;;;;;;;;;;;;21.64;42.18;100584.41;5076710;28;1058;-61
2022/05/21 13:08:03;;;;;;;;;;;;;;;20.69;44.60;100577.56;5062410;28;742;-60
2022/05/21 13:10:30;;;;;;;;;;;;;;;21.12;44.03;100576.44;5059976;28;865;-61
2022/05/21 13:12:57;;;;;;;;;;;;;;;21.26;43.40;100573.63;5060373;28;769;-61
2022/05/21 13:15:29;;;;;;;;;;;;;;;20.82;45.11;100565.69;5045051;28;1071;-59
2022/05/21 13:18:03;;;;;;;;;;;;;;;21.44;44.47;100556.06;5057659;28;2003;-61
2022/05/21 13:20:29;;;;;;;;;;;;;;;22.04;43.37;100545.81;5059364;28;879;-61
2022/05/21 13:22:57;;;;;;;;;;;;;;;19.57;49.68;100550.75;5060815;28;842;-58
2022/05/21 13:25:23;;;;;;;;;;;;;;;19.02;51.92;100541.03;5059940;28;825;-59
2022/05/21 13:27:49;;;;;;;;;;;;;;;18.55;53.02;100542.69;5041543;28;1489;-60
2022/05/21 13:30:16;;;;;;;;;;;;;;;18.33;53.95;100538.53;5062215;28;879;-59
2022/05/21 13:32:42;;;;;;;;;;;;;;;18.28;54.47;100533.06;5059737;28;841;-59